Time;durP1;ratioP1;P1;durP2;ratioP2;P2;SDS_P1;SDS_P2;PMS_P1;PMS_P2;Temp;Humidity;BMP_temperature;BMP_pressure;BME280_temperature;BME280_humidity;BME280_pressure;Samples;Min_cycle;Max_cycle;Signal;HPM_P1;HPM_P2
2021/09/15 00:00:19;;;;;;;7.70;6.90;;;17.40;98.30;;;;;;5176910;23;20896;-81
2021/09/15 00:02:22;;;;;;;11.47;6.80;;;17.40;98.30;;;;;;5177269;23;20443;-81
2021/09/15 00:04:25;;;;;;;7.77;7.17;;;17.30;98.30;;;;;;5176709;23;20420;-81
2021/09/15 00:06:28;;;;;;;7.30;6.53;;;17.30;98.30;;;;;;5177465;23;20420;-81
2021/09/15 00:08:31;;;;;;;9.37;6.40;;;17.40;98.30;;;;;;5176748;23;20438;-82
2021/09/15 00:10:34;;;;;;;8.40;7.10;;;17.50;98.30;;;;;;5168672;23;20450;-81
2021/09/15 00:12:37;;;;;;;11.97;7.23;;;17.40;98.30;;;;;;5176900;23;20465;-81
2021/09/15 00:14:42;;;;;;;7.43;6.73;;;17.40;98.30;;;;;;5176185;23;20427;-81
2021/09/15 00:16:45;;;;;;;7.13;6.53;;;17.30;98.30;;;;;;5177825;23;20511;-82
2021/09/15 00:18:48;;;;;;;8.67;6.47;;;17.30;98.30;;;;;;5169719;23;20479;-81
2021/09/15 00:20:51;;;;;;;7.20;6.50;;;17.30;98.30;;;;;;5177035;23;20764;-83
2021/09/15 00:22:54;;;;;;;7.90;7.07;;;17.20;98.30;;;;;;5177374;23;20522;-82
2021/09/15 00:24:57;;;;;;;8.23;7.47;;;17.20;98.30;;;;;;5176986;23;20450;-82
2021/09/15 00:27:00;;;;;;;8.93;7.10;;;17.20;98.30;;;;;;5168913;23;20438;-81
2021/09/15 00:29:03;;;;;;;9.97;7.07;;;17.20;98.30;;;;;;5168678;23;20459;-81
2021/09/15 00:31:08;;;;;;;7.90;6.83;;;17.20;98.30;;;;;;5177823;23;20776;-82
2021/09/15 00:33:11;;;;;;;9.10;6.77;;;17.30;98.30;;;;;;5170012;23;20523;-82
2021/09/15 00:35:14;;;;;;;7.83;7.03;;;17.30;98.30;;;;;;5177312;23;20749;-82
2021/09/15 00:37:17;;;;;;;8.23;7.50;;;17.30;98.30;;;;;;5177458;23;20416;-82
2021/09/15 00:39:20;;;;;;;8.87;6.87;;;17.30;98.30;;;;;;5177571;23;20526;-83
2021/09/15 00:41:23;;;;;;;7.23;6.53;;;17.20;98.30;;;;;;5178129;23;20427;-81
2021/09/15 00:43:26;;;;;;;11.57;7.60;;;17.20;98.30;;;;;;5168183;23;20475;-85
2021/09/15 00:45:29;;;;;;;8.67;7.63;;;17.10;98.30;;;;;;5168834;23;20435;-81
2021/09/15 00:47:34;;;;;;;7.77;6.93;;;17.20;98.30;;;;;;5177075;23;20427;-82
2021/09/15 00:49:37;;;;;;;7.30;6.60;;;17.20;98.30;;;;;;5177676;23;20423;-82
2021/09/15 00:51:42;;;;;;;8.13;7.33;;;17.20;98.30;;;;;;5168992;23;20428;-81
2021/09/15 00:53:45;;;;;;;7.83;6.97;;;17.10;98.30;;;;;;5176912;23;20420;-81
2021/09/15 00:55:48;;;;;;;8.37;7.30;;;17.10;98.30;;;;;;5178319;23;20430;-82
2021/09/15 00:57:51;;;;;;;9.10;7.13;;;17.10;98.30;;;;;;5178132;23;20478;-81
2021/09/15 00:59:54;;;;;;;7.87;7.17;;;17.10;98.30;;;;;;5176888;23;20435;-84
2021/09/15 01:01:57;;;;;;;8.00;6.80;;;17.10;98.30;;;;;;5176210;23;20776;-81
2021/09/15 01:04:02;;;;;;;7.73;7.03;;;17.10;98.30;;;;;;5168136;23;20428;-83
2021/09/15 01:06:06;;;;;;;8.73;7.17;;;17.10;98.30;;;;;;5176333;23;20427;-81
2021/09/15 01:08:09;;;;;;;9.93;7.70;;;17.00;98.30;;;;;;5176479;23;20462;-82
2021/09/15 01:10:13;;;;;;;8.13;7.33;;;16.90;98.30;;;;;;5176877;23;20924;-81
2021/09/15 01:12:16;;;;;;;8.83;7.80;;;17.00;98.30;;;;;;5177037;23;21375;-81
2021/09/15 01:14:20;;;;;;;8.70;7.87;;;16.90;98.30;;;;;;5177370;23;20526;-82
2021/09/15 01:16:23;;;;;;;8.20;7.37;;;16.90;98.30;;;;;;5177188;23;20412;-82
2021/09/15 01:18:26;;;;;;;8.43;7.10;;;16.90;98.30;;;;;;5177558;23;20503;-82
2021/09/15 01:20:31;;;;;;;8.93;7.63;;;17.00;98.30;;;;;;5176166;23;20451;-81
2021/09/15 01:22:35;;;;;;;9.97;7.90;;;16.90;98.30;;;;;;5167979;23;20972;-83
2021/09/15 01:24:38;;;;;;;10.37;7.97;;;16.90;98.30;;;;;;5168532;23;20460;-82
2021/09/15 01:26:42;;;;;;;8.67;7.87;;;17.00;98.30;;;;;;5177263;23;20930;-82
2021/09/15 01:28:45;;;;;;;9.63;8.73;;;17.00;98.30;;;;;;5175943;23;20470;-81
2021/09/15 01:30:48;;;;;;;11.57;8.33;;;16.90;98.30;;;;;;5167896;23;20431;-81
2021/09/15 01:32:51;;;;;;;9.30;8.40;;;17.10;98.30;;;;;;5176431;23;20444;-81
2021/09/15 01:34:55;;;;;;;8.40;7.10;;;17.10;98.30;;;;;;5166792;23;20464;-81
2021/09/15 01:36:57;;;;;;;12.00;7.80;;;17.20;98.30;;;;;;5167892;23;21093;-80
2021/09/15 01:39:02;;;;;;;10.83;7.67;;;17.20;98.30;;;;;;5176321;23;20463;-81
2021/09/15 01:41:05;;;;;;;8.87;7.77;;;17.20;98.30;;;;;;5176148;23;20998;-81
2021/09/15 01:43:08;;;;;;;10.40;8.80;;;17.10;98.30;;;;;;5176295;23;20855;-81
2021/09/15 01:45:12;;;;;;;8.57;7.63;;;17.20;98.30;;;;;;5176084;23;20987;-82
2021/09/15 01:47:17;;;;;;;9.07;8.13;;;17.10;98.30;;;;;;5175938;23;20426;-81
2021/09/15 01:49:20;;;;;;;8.63;7.33;;;17.00;98.30;;;;;;5167838;23;20925;-84
2021/09/15 01:51:23;;;;;;;9.80;7.50;;;17.10;98.30;;;;;;5167282;23;20424;-81
2021/09/15 01:53:26;;;;;;;11.73;9.00;;;17.10;98.30;;;;;;5167121;23;20432;-81
2021/09/15 01:55:30;;;;;;;11.40;8.97;;;17.10;98.30;;;;;;5176574;23;20427;-81
2021/09/15 01:57:33;;;;;;;11.17;8.30;;;17.10;98.30;;;;;;5176011;23;20721;-81
2021/09/15 01:59:36;;;;;;;12.37;9.10;;;17.00;98.30;;;;;;5177481;23;21022;-82
2021/09/15 02:01:39;;;;;;;8.90;8.10;;;17.10;98.30;;;;;;5177104;23;20427;-81
2021/09/15 02:03:42;;;;;;;8.50;7.50;;;17.00;98.30;;;;;;5168305;23;20494;-81
2021/09/15 02:05:45;;;;;;;10.00;8.10;;;17.10;98.30;;;;;;5176024;23;20423;-83
2021/09/15 02:07:48;;;;;;;10.40;8.17;;;17.00;98.30;;;;;;5167937;23;20785;-81
2021/09/15 02:09:51;;;;;;;9.97;8.37;;;17.00;98.30;;;;;;5175984;23;20426;-81
2021/09/15 02:11:56;;;;;;;10.07;8.50;;;17.00;98.30;;;;;;5167810;23;20470;-82
2021/09/15 02:13:59;;;;;;;8.80;7.87;;;17.00;98.30;;;;;;5175694;23;20964;-81
2021/09/15 02:16:02;;;;;;;9.33;8.43;;;16.90;98.30;;;;;;5168407;23;20438;-81
2021/09/15 02:18:05;;;;;;;9.80;7.93;;;16.90;98.30;;;;;;5176612;23;20424;-81
2021/09/15 02:20:09;;;;;;;11.03;8.70;;;16.90;98.30;;;;;;5167208;23;20444;-81
2021/09/15 02:22:12;;;;;;;10.50;8.50;;;17.00;98.30;;;;;;5167490;23;20534;-81
2021/09/15 02:24:17;;;;;;;10.20;8.80;;;17.00;98.30;;;;;;5176046;23;20419;-82
2021/09/15 02:26:20;;;;;;;10.20;9.20;;;16.90;98.30;;;;;;5176239;23;20749;-82
2021/09/15 02:28:24;;;;;;;10.63;8.90;;;16.80;98.30;;;;;;5176307;23;20426;-82
2021/09/15 02:30:27;;;;;;;11.97;8.77;;;16.90;98.30;;;;;;5176482;23;20470;-82
2021/09/15 02:32:30;;;;;;;10.63;9.10;;;16.90;98.30;;;;;;5176104;23;20467;-84
2021/09/15 02:34:33;;;;;;;10.10;9.10;;;16.90;98.30;;;;;;5176187;23;20420;-81
2021/09/15 02:36:36;;;;;;;11.30;9.33;;;16.90;98.30;;;;;;5175826;23;20424;-81
2021/09/15 02:38:39;;;;;;;9.10;8.17;;;16.90;98.30;;;;;;5176191;23;20415;-81
2021/09/15 02:40:42;;;;;;;9.30;8.30;;;16.90;98.30;;;;;;5184573;23;20443;-83
2021/09/15 02:42:45;;;;;;;12.33;8.83;;;16.90;98.30;;;;;;5188419;23;20447;-81
2021/09/15 02:44:49;;;;;;;10.27;8.63;;;16.90;98.30;;;;;;5187652;23;20420;-81
2021/09/15 02:46:52;;;;;;;10.70;9.70;;;17.00;98.30;;;;;;5188266;23;20491;-80
2021/09/15 02:48:55;;;;;;;10.03;9.03;;;17.00;98.30;;;;;;5185823;23;20494;-82
2021/09/15 02:50:58;;;;;;;10.43;9.20;;;17.00;98.30;;;;;;5187561;23;20973;-81
2021/09/15 02:53:01;;;;;;;10.37;8.63;;;16.90;98.30;;;;;;5187974;23;20836;-82
2021/09/15 02:55:05;;;;;;;9.90;8.90;;;16.90;98.30;;;;;;5183062;23;20448;-81
2021/09/15 02:57:08;;;;;;;10.27;9.27;;;16.80;98.30;;;;;;5178507;23;20434;-82
2021/09/15 02:59:13;;;;;;;11.90;8.80;;;16.80;98.30;;;;;;5170644;23;20435;-81
2021/09/15 03:01:18;;;;;;;11.80;8.67;;;16.80;98.30;;;;;;5179351;23;20450;-82
2021/09/15 03:03:21;;;;;;;10.50;9.37;;;16.80;98.30;;;;;;5170819;23;20451;-82
2021/09/15 03:05:24;;;;;;;13.13;9.27;;;16.80;98.30;;;;;;5177314;23;20435;-81
2021/09/15 03:07:27;;;;;;;11.20;9.97;;;16.80;98.30;;;;;;5179283;23;20455;-83
2021/09/15 03:09:30;;;;;;;9.97;8.97;;;16.80;98.30;;;;;;5178484;23;20430;-82
2021/09/15 03:11:33;;;;;;;8.87;7.63;;;16.90;98.30;;;;;;5169889;23;20741;-81
2021/09/15 03:13:37;;;;;;;10.67;9.03;;;16.90;98.30;;;;;;5178385;23;20419;-83
2021/09/15 03:15:39;;;;;;;9.53;8.53;;;16.90;98.30;;;;;;5180506;23;20497;-82
2021/09/15 03:17:44;;;;;;;12.07;9.20;;;16.90;98.30;;;;;;5180456;23;20766;-81
2021/09/15 03:19:47;;;;;;;12.40;9.40;;;17.00;98.30;;;;;;5179821;23;20907;-82
2021/09/15 03:21:50;;;;;;;11.03;9.77;;;16.90;98.30;;;;;;5178031;23;20964;-81
2021/09/15 03:23:53;;;;;;;10.50;9.50;;;16.80;98.30;;;;;;5177049;23;20530;-81
2021/09/15 03:25:56;;;;;;;12.60;9.80;;;16.80;98.30;;;;;;5169782;23;20428;-81
2021/09/15 03:27:58;;;;;;;10.97;9.87;;;16.70;98.30;;;;;;5169448;23;20427;-83
2021/09/15 03:30:01;;;;;;;12.00;10.27;;;16.60;98.30;;;;;;5177851;23;20920;-81
2021/09/15 03:32:05;;;;;;;10.90;9.50;;;16.70;98.30;;;;;;5170050;23;20530;-82
2021/09/15 03:34:09;;;;;;;12.50;10.00;;;16.70;98.30;;;;;;5178939;23;20434;-81
2021/09/15 03:36:12;;;;;;;11.40;9.10;;;16.60;98.30;;;;;;5178424;23;20427;-82
2021/09/15 03:38:15;;;;;;;11.00;9.80;;;16.70;98.30;;;;;;5178706;23;20749;-81
2021/09/15 03:40:18;;;;;;;13.87;9.70;;;16.70;98.30;;;;;;5178189;23;20427;-81
2021/09/15 03:44:32;;;;;;;12.27;9.70;;;16.80;98.30;;;;;;5131097;22;20451;-82
2021/09/15 03:46:35;;;;;;;12.23;10.10;;;16.70;98.30;;;;;;5178102;23;20899;-82
2021/09/15 03:48:38;;;;;;;14.80;9.60;;;16.70;98.30;;;;;;5178702;23;20426;-82
2021/09/15 03:50:43;;;;;;;11.47;10.33;;;16.50;98.30;;;;;;5178223;23;20912;-81
2021/09/15 03:52:46;;;;;;;11.77;10.60;;;16.50;98.30;;;;;;5179604;23;20463;-82
2021/09/15 03:54:49;;;;;;;11.60;10.50;;;16.50;98.30;;;;;;5179090;23;20450;-82
2021/09/15 03:56:52;;;;;;;11.37;10.20;;;16.50;98.30;;;;;;5179983;23;21008;-82
2021/09/15 03:58:55;;;;;;;11.20;10.00;;;16.40;98.30;;;;;;5180154;23;20433;-83
2021/09/15 04:00:58;;;;;;;10.53;9.43;;;16.50;98.30;;;;;;5180279;23;20748;-82
2021/09/15 04:03:01;;;;;;;13.90;9.73;;;16.50;98.30;;;;;;5180583;23;20517;-82
2021/09/15 04:05:05;;;;;;;12.20;10.50;;;16.50;98.30;;;;;;5180646;23;20493;-82
2021/09/15 04:07:09;;;;;;;12.00;10.30;;;16.40;98.30;;;;;;5172321;23;20935;-81
2021/09/15 04:09:12;;;;;;;11.07;9.93;;;16.40;98.30;;;;;;5172857;23;20442;-82
2021/09/15 04:11:15;;;;;;;11.40;10.20;;;16.30;98.30;;;;;;5173890;23;20487;-82
2021/09/15 04:13:18;;;;;;;12.77;11.07;;;16.10;98.30;;;;;;5175760;23;20471;-82
2021/09/15 04:15:21;;;;;;;12.23;10.37;;;16.10;98.30;;;;;;5179897;23;20450;-82
2021/09/15 04:17:24;;;;;;;11.10;9.90;;;16.10;98.30;;;;;;5171258;23;20423;-82
2021/09/15 04:19:27;;;;;;;13.20;10.30;;;16.20;98.30;;;;;;5171784;23;20434;-82
2021/09/15 04:21:31;;;;;;;11.53;10.37;;;16.20;98.30;;;;;;5170632;23;20814;-82
2021/09/15 04:23:43;;;;;;;14.80;10.40;;;16.20;98.30;;;;;;5178797;23;20444;-82
2021/09/15 04:32:57;;;;;;;13.30;10.70;;;16.40;98.30;;;;;;5178905;23;20459;-82
2021/09/15 04:35:00;;;;;;;11.93;10.73;;;16.30;98.30;;;;;;5179182;23;20426;-83
2021/09/15 04:37:03;;;;;;;16.30;10.90;;;16.30;98.30;;;;;;5180784;23;20495;-82
2021/09/15 04:39:07;;;;;;;11.13;9.90;;;16.30;98.30;;;;;;5179327;23;20420;-82
2021/09/15 04:41:11;;;;;;;12.63;11.40;;;16.30;98.30;;;;;;5170762;23;20438;-82
2021/09/15 04:43:14;;;;;;;13.03;11.67;;;16.30;98.30;;;;;;5178843;23;20522;-82
2021/09/15 04:45:17;;;;;;;15.80;11.07;;;16.30;98.30;;;;;;5178830;23;20434;-83
2021/09/15 04:47:19;;;;;;;11.97;10.50;;;16.30;98.30;;;;;;5178041;23;20743;-83
2021/09/15 04:49:22;;;;;;;11.73;10.60;;;16.30;98.30;;;;;;5170031;23;20432;-83
2021/09/15 04:51:25;;;;;;;15.47;12.30;;;16.20;98.30;;;;;;5178716;23;20713;-83
2021/09/15 04:53:28;;;;;;;13.07;11.40;;;16.30;98.30;;;;;;5169674;23;20448;-83
2021/09/15 04:55:33;;;;;;;11.07;9.97;;;16.40;98.30;;;;;;5177605;23;20449;-82
2021/09/15 04:57:37;;;;;;;12.33;11.03;;;16.20;98.30;;;;;;5177358;23;20430;-82
2021/09/15 04:59:40;;;;;;;13.80;11.70;;;16.20;98.30;;;;;;5176639;23;20412;-87
2021/09/15 05:01:43;;;;;;;13.40;11.40;;;16.20;98.30;;;;;;5175744;23;20788;-84
2021/09/15 05:03:46;;;;;;;13.13;11.63;;;16.30;98.30;;;;;;5174978;23;20464;-83
2021/09/15 05:05:49;;;;;;;13.47;11.17;;;16.20;98.30;;;;;;5173995;23;20498;-84
2021/09/15 05:07:52;;;;;;;13.20;11.60;;;16.10;98.30;;;;;;5165841;23;20435;-84
2021/09/15 05:09:55;;;;;;;15.33;11.70;;;16.10;98.30;;;;;;5173890;23;20431;-84
2021/09/15 05:11:59;;;;;;;13.73;11.40;;;16.20;98.30;;;;;;5165924;23;20511;-84
2021/09/15 05:14:02;;;;;;;12.40;11.10;;;16.30;98.30;;;;;;5165883;23;21168;-84
2021/09/15 05:16:06;;;;;;;12.10;10.80;;;16.30;98.30;;;;;;5174532;23;20451;-84
2021/09/15 05:18:09;;;;;;;14.20;10.90;;;16.20;98.30;;;;;;5171634;23;20495;-83
2021/09/15 05:20:16;;;;;;;14.00;11.57;;;16.10;98.30;;;;;;5167636;23;20539;-84
2021/09/15 05:22:19;;;;;;;12.97;11.07;;;16.20;98.30;;;;;;5175759;23;20447;-84
2021/09/15 05:24:22;;;;;;;14.43;11.57;;;16.10;98.30;;;;;;5167388;23;20514;-83
2021/09/15 05:26:25;;;;;;;17.27;12.00;;;16.10;98.30;;;;;;5167515;23;20452;-84
2021/09/15 05:28:30;;;;;;;14.30;11.77;;;16.10;98.30;;;;;;5167429;23;20427;-84
2021/09/15 05:30:33;;;;;;;15.20;12.70;;;16.10;98.30;;;;;;5175677;23;20424;-84
2021/09/15 05:32:36;;;;;;;13.27;12.03;;;16.10;98.30;;;;;;5175671;23;20444;-84
2021/09/15 05:34:39;;;;;;;15.27;11.90;;;16.10;98.30;;;;;;5166847;23;20812;-84
2021/09/15 05:36:42;;;;;;;13.20;11.90;;;16.10;98.30;;;;;;5167519;23;20452;-83
2021/09/15 05:38:45;;;;;;;11.73;10.40;;;16.10;98.30;;;;;;5175723;23;20507;-83
2021/09/15 05:40:48;;;;;;;12.83;11.10;;;16.20;98.30;;;;;;5175830;23;20478;-84
2021/09/15 05:42:51;;;;;;;13.77;12.20;;;16.00;98.30;;;;;;5175662;23;20550;-83
2021/09/15 05:44:58;;;;;;;12.73;11.40;;;16.00;98.30;;;;;;5166655;23;20446;-84
2021/09/15 05:47:01;;;;;;;13.17;11.73;;;16.00;98.30;;;;;;5167549;23;20416;-84
2021/09/15 05:49:04;;;;;;;13.80;11.60;;;16.00;98.30;;;;;;5175575;23;20424;-83
2021/09/15 05:51:07;;;;;;;14.07;11.57;;;16.00;98.30;;;;;;5167538;23;20514;-84
2021/09/15 05:53:10;;;;;;;16.33;13.60;;;16.10;98.30;;;;;;5175366;23;20461;-84
2021/09/15 05:55:13;;;;;;;16.90;11.77;;;16.10;98.30;;;;;;5175390;23;20458;-83
2021/09/15 05:57:16;;;;;;;16.63;12.37;;;16.10;98.30;;;;;;5175716;23;20507;-84
2021/09/15 05:59:19;;;;;;;12.53;11.20;;;16.10;98.30;;;;;;5175462;23;20416;-84
2021/09/15 06:01:25;;;;;;;14.67;12.57;;;16.10;98.30;;;;;;5175601;23;20436;-83
2021/09/15 06:03:28;;;;;;;13.20;11.80;;;16.10;98.30;;;;;;5175000;23;20758;-84
2021/09/15 06:05:31;;;;;;;15.23;11.87;;;16.10;98.30;;;;;;5175653;23;20824;-84
2021/09/15 06:07:34;;;;;;;14.70;11.33;;;16.10;98.30;;;;;;5175671;23;20452;-83
2021/09/15 06:09:37;;;;;;;14.30;12.50;;;16.10;98.30;;;;;;5175474;23;20429;-83
2021/09/15 06:11:40;;;;;;;13.33;11.50;;;16.10;98.30;;;;;;5167246;23;20559;-84
2021/09/15 06:13:45;;;;;;;13.80;11.07;;;16.10;98.30;;;;;;5174510;23;20443;-84
2021/09/15 06:15:48;;;;;;;12.93;11.60;;;16.00;98.30;;;;;;5175048;23;20522;-83
2021/09/15 06:17:52;;;;;;;16.70;12.00;;;16.10;98.30;;;;;;5175485;23;20748;-84
2021/09/15 06:19:55;;;;;;;12.83;11.50;;;16.20;98.30;;;;;;5175788;23;20424;-84
2021/09/15 06:21:58;;;;;;;21.00;12.47;;;16.10;98.30;;;;;;5175380;23;20451;-83
2021/09/15 06:24:01;;;;;;;14.43;11.67;;;16.20;98.30;;;;;;5166980;23;20443;-84
2021/09/15 06:26:04;;;;;;;13.40;12.00;;;16.10;98.30;;;;;;5175640;23;20415;-83
2021/09/15 06:28:07;;;;;;;14.17;12.47;;;16.20;98.30;;;;;;5167423;23;20466;-83
2021/09/15 06:30:11;;;;;;;15.53;11.97;;;16.10;98.30;;;;;;5177814;23;20498;-84
2021/09/15 06:32:14;;;;;;;15.07;12.90;;;16.20;98.30;;;;;;5188177;23;21057;-84
2021/09/15 06:34:19;;;;;;;14.17;12.60;;;16.20;98.30;;;;;;5188890;23;20442;-84
2021/09/15 06:36:22;;;;;;;16.43;11.50;;;16.30;98.30;;;;;;5188734;23;20443;-84
2021/09/15 06:38:24;;;;;;;14.33;12.80;;;16.30;98.30;;;;;;5181018;23;20427;-84
2021/09/15 06:40:27;;;;;;;15.13;12.33;;;16.40;98.30;;;;;;5180412;23;20520;-84
2021/09/15 06:42:31;;;;;;;13.13;11.73;;;16.30;98.30;;;;;;5175604;23;20450;-84
2021/09/15 06:44:34;;;;;;;13.60;11.87;;;16.40;98.30;;;;;;5175344;23;20436;-84
2021/09/15 06:46:37;;;;;;;14.27;12.23;;;16.40;98.30;;;;;;5176239;23;20497;-84
2021/09/15 06:48:40;;;;;;;13.37;11.97;;;16.40;98.30;;;;;;5167943;23;20510;-84
2021/09/15 06:50:44;;;;;;;16.70;12.77;;;16.40;98.30;;;;;;5176443;23;20427;-84
2021/09/15 06:52:47;;;;;;;13.60;10.67;;;16.40;98.30;;;;;;5177799;23;20439;-84
2021/09/15 06:54:50;;;;;;;14.77;11.50;;;16.40;98.30;;;;;;5169144;23;20456;-84
2021/09/15 06:56:53;;;;;;;14.77;11.80;;;16.50;98.30;;;;;;5184039;23;20495;-84
2021/09/15 06:58:56;;;;;;;14.63;11.80;;;16.70;98.30;;;;;;5192055;23;20412;-84
2021/09/15 07:00:59;;;;;;;14.47;12.60;;;16.70;98.30;;;;;;5191017;23;20435;-84
2021/09/15 07:03:03;;;;;;;13.17;11.77;;;16.70;98.30;;;;;;5189824;23;20446;-84
2021/09/15 07:05:07;;;;;;;14.90;11.10;;;16.60;98.30;;;;;;5189995;23;20731;-84
2021/09/15 07:07:12;;;;;;;14.20;11.20;;;16.70;98.30;;;;;;5190265;23;20483;-83
2021/09/15 07:09:15;;;;;;;12.60;11.30;;;16.80;98.30;;;;;;5185519;23;20424;-84
2021/09/15 07:11:18;;;;;;;13.50;12.10;;;16.80;98.30;;;;;;5175414;23;20504;-84
2021/09/15 07:13:21;;;;;;;15.10;13.60;;;16.70;98.30;;;;;;5174179;23;20961;-84
2021/09/15 07:15:25;;;;;;;12.80;11.40;;;16.80;98.30;;;;;;5174611;23;20420;-83
2021/09/15 07:17:28;;;;;;;12.10;10.90;;;16.80;98.30;;;;;;5174925;23;20463;-83
2021/09/15 07:19:32;;;;;;;14.53;12.27;;;16.80;98.30;;;;;;5175031;23;20505;-83
2021/09/15 07:21:35;;;;;;;15.10;12.67;;;16.80;98.30;;;;;;5174538;23;20743;-84
2021/09/15 07:23:40;;;;;;;13.37;12.07;;;16.70;98.30;;;;;;5174103;23;20448;-84
2021/09/15 07:25:43;;;;;;;15.90;12.50;;;16.70;98.30;;;;;;5166540;23;20463;-84
2021/09/15 07:27:46;;;;;;;14.30;12.80;;;16.60;98.30;;;;;;5176059;23;20506;-83
2021/09/15 07:29:49;;;;;;;17.23;14.17;;;16.50;98.30;;;;;;5175176;23;20400;-83
2021/09/15 07:32:01;;;;;;;14.80;13.03;;;16.50;98.30;;;;;;5174517;23;20814;-84
2021/09/15 07:34:04;;;;;;;15.77;12.70;;;16.50;98.30;;;;;;5173979;23;20450;-84
2021/09/15 07:36:08;;;;;;;14.60;13.10;;;16.40;98.30;;;;;;5174770;23;20455;-84
2021/09/15 07:38:11;;;;;;;15.80;14.27;;;16.40;98.30;;;;;;5174470;23;20430;-83
2021/09/15 07:40:17;;;;;;;15.67;13.30;;;16.40;98.30;;;;;;5174483;23;20420;-83
2021/09/15 07:42:20;;;;;;;16.10;13.53;;;16.40;98.30;;;;;;5174316;23;21120;-84
2021/09/15 07:44:23;;;;;;;14.00;12.50;;;16.50;98.30;;;;;;5174029;23;20470;-83
2021/09/15 07:46:27;;;;;;;14.50;12.70;;;16.50;98.30;;;;;;5174697;23;20718;-83
2021/09/15 07:48:30;;;;;;;15.33;12.90;;;16.60;98.30;;;;;;5166258;23;20932;-83
2021/09/15 07:50:33;;;;;;;17.03;13.40;;;16.80;98.30;;;;;;5174751;23;20737;-83
2021/09/15 07:52:36;;;;;;;16.90;13.23;;;16.90;98.30;;;;;;5174709;23;20471;-84
2021/09/15 07:54:40;;;;;;;14.30;12.77;;;16.90;98.30;;;;;;5165592;23;20426;-84
2021/09/15 07:56:44;;;;;;;17.20;12.87;;;16.90;98.30;;;;;;5174327;23;20813;-83
2021/09/15 07:58:47;;;;;;;16.13;14.03;;;16.90;98.30;;;;;;5174197;23;20448;-84
2021/09/15 08:00:50;;;;;;;14.80;13.47;;;16.90;98.30;;;;;;5176000;23;20519;-83
2021/09/15 08:02:53;;;;;;;17.53;13.33;;;16.80;98.30;;;;;;5175794;23;20467;-83
2021/09/15 08:04:56;;;;;;;15.77;14.10;;;16.80;98.30;;;;;;5167318;23;20450;-82
2021/09/15 08:06:59;;;;;;;15.50;13.13;;;16.80;98.30;;;;;;5176080;23;20813;-83
2021/09/15 08:09:02;;;;;;;14.90;13.37;;;16.80;98.30;;;;;;5167651;23;20454;-83
2021/09/15 08:11:05;;;;;;;15.57;13.57;;;16.80;98.30;;;;;;5175645;23;20419;-84
2021/09/15 08:13:10;;;;;;;15.10;13.60;;;16.80;98.30;;;;;;5175004;23;20443;-83
2021/09/15 08:15:13;;;;;;;18.97;14.20;;;16.80;98.30;;;;;;5175574;23;20423;-83
2021/09/15 08:17:16;;;;;;;15.80;14.20;;;16.80;98.30;;;;;;5167294;23;20510;-83
2021/09/15 08:19:20;;;;;;;15.60;13.33;;;16.90;98.30;;;;;;5167209;23;20432;-83
2021/09/15 08:21:23;;;;;;;16.83;13.23;;;16.80;98.30;;;;;;5175722;23;20514;-84
2021/09/15 08:23:26;;;;;;;17.57;14.30;;;16.60;98.30;;;;;;5167153;23;20833;-83
2021/09/15 08:25:30;;;;;;;17.23;15.23;;;16.60;98.30;;;;;;5175869;23;20438;-83
2021/09/15 08:27:33;;;;;;;15.77;13.67;;;16.60;98.30;;;;;;5175675;23;20502;-84
2021/09/15 08:29:39;;;;;;;23.53;15.10;;;16.50;98.30;;;;;;5175816;23;20412;-83
2021/09/15 08:31:42;;;;;;;16.00;13.10;;;16.30;98.30;;;;;;5175758;23;20428;-83
2021/09/15 08:33:46;;;;;;;17.30;15.00;;;16.20;98.30;;;;;;5167050;23;21029;-83
2021/09/15 08:35:49;;;;;;;19.60;14.40;;;16.30;98.30;;;;;;5175858;23;20437;-82
2021/09/15 08:37:52;;;;;;;15.10;13.70;;;16.50;98.30;;;;;;5175537;23;20428;-83
2021/09/15 08:39:55;;;;;;;18.03;14.73;;;16.40;98.30;;;;;;5175723;23;20436;-84
2021/09/15 08:41:58;;;;;;;16.83;14.73;;;16.40;98.30;;;;;;5167260;23;20507;-83
2021/09/15 08:44:01;;;;;;;23.10;15.63;;;16.40;98.30;;;;;;5175068;23;20522;-83
2021/09/15 08:46:06;;;;;;;16.47;13.80;;;16.40;98.30;;;;;;5175709;23;20881;-83
2021/09/15 08:48:09;;;;;;;16.33;14.70;;;16.40;98.30;;;;;;5175687;23;20428;-83
2021/09/15 08:50:14;;;;;;;16.50;14.67;;;16.50;98.30;;;;;;5168052;23;20982;-85
2021/09/15 08:52:17;;;;;;;16.20;13.97;;;16.50;98.30;;;;;;5175114;23;20443;-83
2021/09/15 08:54:20;;;;;;;17.30;15.03;;;16.60;98.30;;;;;;5175673;23;20503;-83
2021/09/15 08:56:23;;;;;;;21.73;15.50;;;16.60;98.30;;;;;;5175469;23;20439;-82
2021/09/15 08:58:26;;;;;;;17.77;15.50;;;16.50;98.30;;;;;;5175605;23;20427;-83
2021/09/15 09:00:29;;;;;;;16.03;14.40;;;16.50;98.30;;;;;;5175786;23;20502;-83
2021/09/15 09:02:38;;;;;;;18.10;16.20;;;16.50;98.30;;;;;;5166820;23;20448;-83
2021/09/15 09:04:52;;;;;;;18.57;15.00;;;16.70;98.30;;;;;;5166772;23;21211;-83
2021/09/15 09:06:55;;;;;;;17.13;15.33;;;16.80;98.30;;;;;;5167126;23;20448;-84
2021/09/15 09:09:00;;;;;;;16.33;13.97;;;16.90;98.30;;;;;;5167116;23;20467;-83
2021/09/15 09:11:03;;;;;;;16.20;14.50;;;16.80;98.30;;;;;;5167037;23;20430;-83
2021/09/15 09:13:18;;;;;;;17.33;14.90;;;16.90;98.30;;;;;;5175221;23;20444;-83
2021/09/15 09:15:23;;;;;;;16.73;15.07;;;16.80;98.30;;;;;;5167053;23;20412;-83
2021/09/15 09:17:29;;;;;;;16.90;15.10;;;16.80;98.30;;;;;;5175573;23;20419;-83
2021/09/15 09:19:33;;;;;;;17.97;15.10;;;16.90;98.30;;;;;;5175476;23;20427;-83
2021/09/15 09:21:37;;;;;;;16.17;14.63;;;16.70;98.30;;;;;;5175426;23;20434;-83
2021/09/15 09:23:40;;;;;;;17.70;15.87;;;16.70;98.30;;;;;;5166569;23;20471;-83
2021/09/15 09:25:47;;;;;;;18.23;15.50;;;16.70;98.30;;;;;;5175478;23;20443;-83
2021/09/15 09:28:19;;;;;;;19.40;14.63;;;16.80;98.30;;;;;;5167082;23;20409;-83
2021/09/15 09:30:33;;;;;;;22.60;16.77;;;16.80;98.30;;;;;;5167035;23;20439;-83
2021/09/15 09:32:45;;;;;;;17.60;15.43;;;16.80;98.30;;;;;;5166781;23;20458;-83
2021/09/15 09:34:51;;;;;;;18.97;15.57;;;16.80;98.30;;;;;;5175197;23;20414;-83
2021/09/15 09:37:05;;;;;;;20.00;15.83;;;16.70;98.30;;;;;;5166884;23;20420;-82
2021/09/15 09:39:12;;;;;;;19.67;15.83;;;16.70;98.30;;;;;;5175494;23;21126;-83
2021/09/15 09:41:16;;;;;;;20.33;15.63;;;16.70;98.30;;;;;;5174976;23;20518;-83
2021/09/15 09:43:19;;;;;;;18.23;16.40;;;16.70;98.30;;;;;;5174870;23;20448;-83
2021/09/15 09:45:22;;;;;;;17.33;15.37;;;16.70;98.30;;;;;;5169734;22;20466;-82
2021/09/15 09:47:27;;;;;;;20.40;18.27;;;16.60;98.30;;;;;;5166780;23;20424;-82
2021/09/15 09:49:38;;;;;;;17.40;15.53;;;16.60;98.30;;;;;;5175018;23;20424;-83
2021/09/15 09:51:48;;;;;;;19.53;17.37;;;16.60;98.30;;;;;;5174932;23;20423;-83
2021/09/15 09:54:05;;;;;;;20.43;16.37;;;16.60;98.30;;;;;;5165636;23;20469;-83
2021/09/15 09:56:08;;;;;;;19.23;16.90;;;16.60;98.30;;;;;;5150439;23;20483;-82
2021/09/15 09:58:13;;;;;;;18.90;16.90;;;16.60;98.30;;;;;;5150116;23;20990;-83
2021/09/15 10:00:18;;;;;;;18.37;16.43;;;16.70;98.30;;;;;;5150107;23;20810;-82
2021/09/15 10:02:21;;;;;;;21.20;16.40;;;16.60;98.30;;;;;;5149577;23;20503;-83
2021/09/15 10:04:26;;;;;;;19.60;17.07;;;16.60;98.30;;;;;;5148961;23;20464;-81
2021/09/15 10:06:29;;;;;;;19.17;17.27;;;16.70;98.30;;;;;;5149674;23;20508;-83
2021/09/15 10:08:38;;;;;;;19.33;17.47;;;16.80;98.30;;;;;;5149856;23;20425;-82
2021/09/15 10:10:49;;;;;;;21.57;17.43;;;16.90;98.30;;;;;;5149849;23;20483;-82
2021/09/15 10:12:54;;;;;;;20.90;18.70;;;16.90;98.30;;;;;;5149738;23;20409;-83
2021/09/15 10:15:00;;;;;;;21.63;18.10;;;17.00;98.30;;;;;;5149254;23;20441;-82
2021/09/15 10:17:10;;;;;;;21.60;16.83;;;17.00;98.30;;;;;;5149721;23;20893;-82
2021/09/15 10:19:16;;;;;;;25.30;18.50;;;17.10;98.30;;;;;;5149659;23;20420;-83
2021/09/15 10:21:19;;;;;;;20.57;18.37;;;17.20;98.30;;;;;;5149656;23;20434;-82
2021/09/15 10:23:42;;;;;;;23.43;20.93;;;17.30;98.30;;;;;;5141135;23;20517;-82
2021/09/15 10:25:45;;;;;;;23.57;18.53;;;17.30;98.30;;;;;;5150052;23;20448;-83
2021/09/15 10:27:59;;;;;;;19.40;17.40;;;17.30;98.30;;;;;;5149606;23;20513;-83
2021/09/15 10:30:06;;;;;;;20.97;18.00;;;17.20;98.30;;;;;;5150098;23;20763;-83
2021/09/15 10:32:11;;;;;;;18.90;17.03;;;17.20;98.30;;;;;;5149925;23;20508;-83
2021/09/15 10:35:06;;;;;;;19.63;17.70;;;17.30;98.30;;;;;;5149346;23;20921;-82
2021/09/15 10:37:52;;;;;;;18.73;16.90;;;17.20;98.30;;;;;;5149454;23;20431;-82
2021/09/15 10:39:58;;;;;;;21.33;19.03;;;17.30;98.30;;;;;;5149792;23;20500;-83
2021/09/15 10:42:04;;;;;;;22.20;17.83;;;17.40;98.30;;;;;;5149295;23;20893;-83
2021/09/15 10:44:08;;;;;;;23.50;16.97;;;17.30;98.30;;;;;;5149411;23;20444;-82